METAR Data

Data at: 1834 UTC 26 Oct 2021

EDDW 261820Z 21008KT 9999 FEW022 BKN038 12/09 Q1019 NOSIG
EDDW 261750Z 21009KT 9999 BKN030 12/10 Q1019 NOSIG
EDDW 261720Z 21007KT 9999 FEW020 BKN032 12/10 Q1019 NOSIG
EDDW 261650Z 20004KT 180V240 9999 SCT020 BKN032 12/10 Q1019 NOSIG
EDDW 261620Z 22004KT 9999 BKN020 11/10 Q1018 NOSIG
EDDW 261550Z 23010KT 4500 -RA FEW007 SCT025 11/10 Q1018 BECMG 9999
EDDW 261520Z 23011KT 9999 -RA SCT025 12/09 Q1018 NOSIG
EDDW 261450Z 22010KT 9999 FEW025 13/09 Q1018 NOSIG
EDDW 261420Z 22010KT 9999 FEW025 13/09 Q1018 NOSIG
EDDW 261350Z 22012KT 9999 FEW025 14/08 Q1018 NOSIG
EDDW 261320Z 23012KT 9999 FEW025 14/09 Q1018 NOSIG
EDDW 261250Z 23009KT 9999 SCT025 14/09 Q1018 NOSIG
EDDW 261220Z 23009KT 9999 BKN020 13/09 Q1018 NOSIG
EDDW 261150Z 24012KT 9999 BKN018 13/09 Q1018 NOSIG
EDDW 261120Z 23010KT 9999 BKN018 13/09 Q1018 NOSIG
EDDW 261050Z 25012KT 9999 BKN018 13/09 Q1018 NOSIG
EDDW 261020Z 23013KT 9999 BKN018 13/09 Q1018 NOSIG
EDDW 260950Z 24009KT 9999 BKN019 13/10 Q1018 TEMPO BKN013
EDDW 260920Z 24009KT 9999 BKN017 12/10 Q1018 TEMPO BKN013
EDDW 260850Z 22008KT 9999 BKN016 12/10 Q1018 TEMPO BKN013
EDDW 260820Z 24009KT 9999 BKN016 12/09 Q1018 TEMPO BKN013
EDDW 260750Z 24008KT 9999 BKN015 12/09 Q1018 TEMPO BKN013
EDDW 260720Z 24008KT 9999 FEW012 BKN017 11/10 Q1018 TEMPO BKN014
EDDW 260650Z 23009KT 9999 BKN018 11/10 Q1017 TEMPO BKN014
EDDW 260620Z 22007KT 9999 BKN017 11/10 Q1017 TEMPO BKN014
EDDW 260550Z 22005KT 9000 BKN018 10/09 Q1017 TEMPO BKN014
EDDW 260520Z 23005KT 8000 BKN011 09/08 Q1016 TEMPO BKN009
EDDW 260450Z 23007KT 9999 BKN011 10/09 Q1016 TEMPO BKN009
EDDW 260420Z 21007KT 9999 BKN011 11/09 Q1016 TEMPO BKN009
EDDW 260350Z 21008KT 9999 FEW011 SCT023 11/09 Q1016 TEMPO BKN011
EDDW 260320Z 22008KT 9999 SCT011 BKN018 11/09 Q1016
EDDW 260250Z 22007KT 9999 SCT017 BKN030 11/09 Q1016
EDDW 260220Z 21007KT 9999 SCT015 BKN024 11/09 Q1016
EDDW 260150Z 21006KT 9999 OVC024 11/09 Q1016
EDDW 260120Z 21007KT 9999 BKN022 11/09 Q1016
EDDW 260050Z 22007KT 9999 BKN024 11/09 Q1016
EDDW 260020Z 21007KT 9999 SCT014 10/08 Q1016
EDDW 252350Z 21007KT 9999 SCT043 11/09 Q1016
EDDW 252320Z 21006KT 9999 -RA SCT023 BKN042 11/09 Q1016
EDDW 252250Z 21005KT 8000 -RA BKN027 11/09 Q1016
EDDW 252220Z 22005KT 9999 BKN029 11/08 Q1016
EDDW 252150Z 20005KT 9999 BKN022 11/08 Q1016
EDDW 252120Z 20005KT 9999 SCT023 BKN048 11/08 Q1016
EDDW 252050Z 20005KT 9999 BKN019 BKN042 11/08 Q1016 TEMPO BKN014
EDDW 252020Z 21004KT 180V240 9999 BKN021 11/08 Q1016 TEMPO BKN014
EDDW 251950Z 21004KT 9999 BKN019 11/08 Q1016 TEMPO BKN014
EDDW 251920Z 19005KT 9999 BKN048 11/08 Q1016 TEMPO BKN014
EDDW 251850Z 21005KT 9999 SCT019 BKN047 11/08 Q1016 NOSIG
EDDW 251820Z 22005KT 9999 BKN021 12/08 Q1016 NOSIG
EDDW 251750Z 19006KT 9999 BKN022 12/08 Q1016 NOSIG
EDDW 251720Z 18004KT 9999 BKN022 12/08 Q1016 NOSIG
EDDW 251650Z 20006KT 9999 BKN022 12/08 Q1016 NOSIG
EDDW 251620Z 20005KT 9999 BKN022 12/08 Q1016 NOSIG
EDDW 251550Z 19005KT 9999 BKN024 13/08 Q1016 NOSIG
EDDW 251520Z 17005KT 9999 BKN030 13/08 Q1016 NOSIG
EDDW 251450Z 19006KT 9999 BKN023 BKN044 13/08 Q1016 NOSIG
EDDW 251420Z 18007KT 9999 FEW024 BKN044 13/08 Q1016 NOSIG
EDDW 251350Z 17007KT 9999 FEW022 BKN037 13/08 Q1016 NOSIG
EDDW 251320Z 20006KT 9999 -RA FEW008 BKN024 12/08 Q1016 NOSIG
EDDW 251250Z 19007KT 9999 BKN030 12/08 Q1017 NOSIG
EDDW 251220Z 20007KT 9999 BKN030 12/08 Q1017 NOSIG
EDDW 251150Z 19006KT 9999 BKN031 11/07 Q1017 NOSIG
EDDW 251120Z 19006KT 9999 BKN033 10/07 Q1017 NOSIG
EDDW 251050Z 19007KT 160V220 9999 BKN032 10/06 Q1018 NOSIG
EDDW 251020Z 20006KT 9999 FEW016 BKN032 09/06 Q1018 NOSIG
EDDW 250950Z 21006KT 9999 FEW016 BKN032 09/06 Q1018 NOSIG
EDDW 250920Z 18007KT 150V210 9999 FEW016 BKN035 09/06 Q1018 NOSIG
EDDW 250850Z VRB03KT 9999 BKN035 08/05 Q1017 NOSIG
EDDW 250820Z 16005KT 9999 BKN035 06/04 Q1018 NOSIG
EDDW 250750Z 17005KT CAVOK 05/03 Q1018 NOSIG
EDDW 250720Z 17005KT CAVOK 03/02 Q1018 NOSIG
EDDW 250650Z 16004KT CAVOK 02/01 Q1018 NOSIG